Time;durP1;ratioP1;P1;durP2;ratioP2;P2;SDS_P1;SDS_P2;PMS_P1;PMS_P2;Temp;Humidity;BMP_temperature;BMP_pressure;BME280_temperature;BME280_humidity;BME280_pressure;Samples;Min_cycle;Max_cycle;Signal;HPM_P1;HPM_P2
2023/04/13 00:01:06;;;;;;;2.08;0.70;;;8.90;99.90;;;;;;5027923;28;20771;-75
2023/04/13 00:03:32;;;;;;;1.63;0.50;;;8.90;99.90;;;;;;5013176;28;20181;-75
2023/04/13 00:05:58;;;;;;;1.73;0.60;;;8.90;99.90;;;;;;5012530;28;20186;-74
2023/04/13 00:08:24;;;;;;;1.47;0.60;;;9.00;99.90;;;;;;5013129;28;20743;-75
2023/04/13 00:10:49;;;;;;;3.50;0.60;;;9.10;99.90;;;;;;5012731;28;20613;-75
2023/04/13 00:13:17;;;;;;;1.20;0.60;;;9.10;99.90;;;;;;5019258;28;20173;-75
2023/04/13 00:15:43;;;;;;;1.60;0.60;;;9.20;99.90;;;;;;5037298;28;20579;-80
2023/04/13 00:18:09;;;;;;;1.20;0.57;;;9.20;99.90;;;;;;5033231;28;20200;-81
2023/04/13 00:20:36;;;;;;;1.67;0.50;;;9.30;99.90;;;;;;5027248;28;20198;-81
2023/04/13 00:23:02;;;;;;;1.40;0.50;;;9.30;99.90;;;;;;4996186;28;20615;-81
2023/04/13 00:25:29;;;;;;;1.75;0.70;;;9.40;99.90;;;;;;5013076;28;20222;-74
2023/04/13 00:28:01;;;;;;;1.90;0.80;;;9.50;99.90;;;;;;4996026;28;20198;-74
2023/04/13 00:30:29;;;;;;;2.47;0.57;;;9.60;99.90;;;;;;5012570;28;20194;-74
2023/04/13 00:32:55;;;;;;;4.15;0.57;;;9.70;99.90;;;;;;4979613;28;20269;-74
2023/04/13 00:35:25;;;;;;;3.00;0.63;;;9.70;99.90;;;;;;5013731;28;20258;-75
2023/04/13 00:37:51;;;;;;;1.50;0.50;;;9.80;99.90;;;;;;5011224;28;20285;-74
2023/04/13 00:40:17;;;;;;;1.63;0.50;;;9.80;99.90;;;;;;5012507;28;20198;-74
2023/04/13 00:42:45;;;;;;;2.50;0.60;;;9.90;99.90;;;;;;4979992;28;20181;-74
2023/04/13 00:45:12;;;;;;;1.90;0.60;;;9.90;99.90;;;;;;5011911;28;20182;-74
2023/04/13 00:47:40;;;;;;;2.97;0.60;;;9.90;99.90;;;;;;5012293;28;20174;-74
2023/04/13 00:50:08;;;;;;;1.42;0.70;;;10.00;99.90;;;;;;5012994;28;20336;-74
2023/04/13 00:52:37;;;;;;;2.28;0.60;;;10.00;99.90;;;;;;4990531;28;20182;-75
2023/04/13 00:55:04;;;;;;;2.80;0.68;;;10.10;99.90;;;;;;5031101;28;20181;-74
2023/04/13 00:57:32;;;;;;;1.15;0.50;;;10.10;99.90;;;;;;5033316;28;20178;-74
2023/04/13 00:59:59;;;;;;;4.28;1.00;;;10.10;99.90;;;;;;5031704;28;20276;-74
2023/04/13 01:02:25;;;;;;;1.40;0.40;;;10.20;99.90;;;;;;5018453;28;20182;-74
2023/04/13 01:05:11;;;;;;;1.30;0.50;;;10.20;99.90;;;;;;5005487;28;20185;-74
2023/04/13 01:08:16;;;;;;;1.60;0.50;;;10.30;99.90;;;;;;4995046;28;20740;-74
2023/04/13 01:10:57;;;;;;;3.53;0.50;;;10.30;99.90;;;;;;5009688;28;20232;-75
2023/04/13 01:13:59;;;;;;;1.92;0.50;;;10.30;99.90;;;;;;4988323;28;20193;-74
2023/04/13 01:16:42;;;;;;;1.90;0.50;;;10.30;99.90;;;;;;4990657;28;20151;-77
2023/04/13 01:19:21;;;;;;;2.42;0.57;;;10.30;99.90;;;;;;5004006;28;20194;-80
2023/04/13 01:21:53;;;;;;;1.42;0.60;;;10.30;99.90;;;;;;5009533;28;20186;-81
2023/04/13 01:24:45;;;;;;;3.85;0.70;;;10.30;99.90;;;;;;5011824;28;20269;-80
2023/04/13 01:27:35;;;;;;;1.92;0.70;;;10.20;99.90;;;;;;4996044;28;20178;-81
2023/04/13 01:30:01;;;;;;;1.77;0.60;;;10.20;99.90;;;;;;4998238;28;20272;-81
2023/04/13 01:32:27;;;;;;;1.45;0.70;;;10.20;99.90;;;;;;4995492;28;20521;-81
2023/04/13 01:34:54;;;;;;;2.90;0.60;;;10.20;99.90;;;;;;5012367;28;20262;-81
2023/04/13 01:37:19;;;;;;;2.70;0.60;;;10.30;99.90;;;;;;5011773;28;20596;-81
2023/04/13 01:39:47;;;;;;;1.27;0.43;;;10.30;99.90;;;;;;4995298;28;20578;-81
2023/04/13 01:42:24;;;;;;;2.70;0.70;;;10.30;99.90;;;;;;4995161;28;20555;-81
2023/04/13 01:44:50;;;;;;;3.70;1.02;;;10.30;99.90;;;;;;4994233;28;20254;-81
2023/04/13 01:47:22;;;;;;;1.30;0.50;;;10.30;99.90;;;;;;5012329;28;20166;-81
2023/04/13 01:50:02;;;;;;;1.40;0.50;;;10.30;99.90;;;;;;4995658;28;20286;-81
2023/04/13 01:52:39;;;;;;;1.75;0.50;;;10.30;99.90;;;;;;5012568;28;20510;-82
2023/04/13 01:55:09;;;;;;;1.50;0.50;;;10.40;99.90;;;;;;4994655;28;20220;-81
2023/04/13 01:57:38;;;;;;;2.30;0.70;;;10.40;99.90;;;;;;4994606;28;20177;-81
2023/04/13 02:00:10;;;;;;;1.70;0.52;;;10.40;99.90;;;;;;5001057;28;20679;-77
2023/04/13 02:02:38;;;;;;;1.42;0.50;;;10.40;99.90;;;;;;5031133;28;20229;-77
2023/04/13 02:05:06;;;;;;;2.50;0.50;;;10.40;99.90;;;;;;4992596;28;20178;-77
2023/04/13 02:07:33;;;;;;;2.40;0.68;;;10.40;99.90;;;;;;5000662;28;20170;-79
2023/04/13 02:09:59;;;;;;;1.67;0.50;;;10.50;99.90;;;;;;5011162;28;20195;-79
2023/04/13 02:12:25;;;;;;;1.30;0.77;;;10.40;99.90;;;;;;4994064;28;20633;-79
2023/04/13 02:14:52;;;;;;;2.57;0.50;;;10.50;99.90;;;;;;5010789;28;20226;-79
2023/04/13 02:17:17;;;;;;;1.10;0.43;;;10.50;99.90;;;;;;5011161;28;20166;-78
2023/04/13 02:19:44;;;;;;;2.00;0.60;;;10.50;99.90;;;;;;4994085;28;20214;-79
2023/04/13 02:22:13;;;;;;;1.15;0.50;;;10.50;99.90;;;;;;5008892;28;20191;-74
2023/04/13 02:24:41;;;;;;;1.97;0.60;;;10.60;99.90;;;;;;4997160;28;20653;-74
2023/04/13 02:27:07;;;;;;;2.13;0.70;;;10.50;99.90;;;;;;4978267;28;20692;-75
2023/04/13 02:29:33;;;;;;;1.92;0.50;;;10.60;99.90;;;;;;5009642;28;20221;-74
2023/04/13 02:31:59;;;;;;;1.83;0.47;;;10.60;99.90;;;;;;5010583;28;20189;-74
2023/04/13 02:34:25;;;;;;;1.83;0.50;;;10.60;99.90;;;;;;5010227;28;20265;-74
2023/04/13 02:36:51;;;;;;;3.70;0.60;;;10.60;99.90;;;;;;5010419;28;20729;-74
2023/04/13 02:39:17;;;;;;;1.60;0.40;;;10.60;99.90;;;;;;5010488;28;20679;-73
2023/04/13 02:41:42;;;;;;;1.42;0.50;;;10.60;99.90;;;;;;5009970;28;20166;-74
2023/04/13 02:44:11;;;;;;;2.20;0.60;;;10.60;99.90;;;;;;4980574;28;20356;-74
2023/04/13 02:46:47;;;;;;;1.50;0.60;;;10.60;99.90;;;;;;4978731;28;20178;-74
2023/04/13 02:49:15;;;;;;;1.65;0.50;;;10.60;99.90;;;;;;5005109;23;20226;-77
2023/04/13 02:51:52;;;;;;;1.73;0.50;;;10.60;99.90;;;;;;4973344;28;20618;-77
2023/04/13 02:54:25;;;;;;;2.60;0.70;;;10.60;99.90;;;;;;4974055;28;20182;-77
2023/04/13 02:56:51;;;;;;;1.20;0.47;;;10.60;99.90;;;;;;4990110;28;20320;-77
2023/04/13 02:59:17;;;;;;;2.90;0.60;;;10.60;99.90;;;;;;4954854;28;20294;-77
2023/04/13 03:01:44;;;;;;;3.92;0.60;;;10.70;99.90;;;;;;4970508;28;20571;-78
2023/04/13 03:04:11;;;;;;;1.25;0.50;;;10.70;99.90;;;;;;4970442;28;20179;-77
2023/04/13 03:06:37;;;;;;;2.70;0.50;;;10.70;99.90;;;;;;4970506;28;20175;-77
2023/04/13 03:09:03;;;;;;;2.93;0.50;;;10.70;99.90;;;;;;4970330;28;20211;-77
2023/04/13 03:11:37;;;;;;;1.30;0.50;;;10.70;99.90;;;;;;4970932;28;20183;-78
2023/04/13 03:14:19;;;;;;;1.30;0.50;;;10.70;99.90;;;;;;4975854;28;20183;-77
2023/04/13 03:16:50;;;;;;;2.00;0.50;;;10.70;99.90;;;;;;4970757;28;20235;-77
2023/04/13 03:19:17;;;;;;;2.42;0.80;;;10.70;99.90;;;;;;4970296;28;20926;-77
2023/04/13 03:21:45;;;;;;;1.73;0.50;;;10.70;99.90;;;;;;4976026;28;20230;-77
2023/04/13 03:24:14;;;;;;;2.78;0.50;;;10.70;99.90;;;;;;4970920;28;20175;-77
2023/04/13 03:26:40;;;;;;;1.50;0.60;;;10.70;99.90;;;;;;4970659;28;20563;-77
2023/04/13 03:29:11;;;;;;;1.40;0.50;;;10.70;99.90;;;;;;4986180;28;20229;-77
2023/04/13 03:31:41;;;;;;;1.40;0.50;;;10.70;99.90;;;;;;4971370;28;20255;-77
2023/04/13 03:34:07;;;;;;;1.42;0.50;;;10.70;99.90;;;;;;4970721;28;20259;-77
2023/04/13 03:36:34;;;;;;;3.83;0.50;;;10.70;99.90;;;;;;4970055;28;20176;-77
2023/04/13 03:39:00;;;;;;;2.10;0.70;;;10.70;99.90;;;;;;4986810;28;20246;-77
2023/04/13 03:41:32;;;;;;;2.15;0.60;;;10.70;99.90;;;;;;4986472;28;20587;-76
2023/04/13 03:43:58;;;;;;;1.63;0.60;;;10.60;99.90;;;;;;4969988;28;20179;-77
2023/04/13 03:46:26;;;;;;;1.90;0.60;;;10.70;99.90;;;;;;4970350;28;20184;-77
2023/04/13 03:48:53;;;;;;;2.35;0.63;;;10.70;99.90;;;;;;4969786;28;20639;-77
2023/04/13 03:51:24;;;;;;;1.90;0.60;;;10.70;99.90;;;;;;4975047;28;20191;-76
2023/04/13 03:53:51;;;;;;;1.83;0.60;;;10.70;99.90;;;;;;4969914;28;20611;-78
2023/04/13 03:56:22;;;;;;;1.48;0.50;;;10.60;99.90;;;;;;4971348;28;20644;-77
2023/04/13 03:58:48;;;;;;;1.67;0.60;;;10.60;99.90;;;;;;4969724;28;20203;-77
2023/04/13 04:01:19;;;;;;;1.20;0.50;;;10.60;99.90;;;;;;4970256;28;20652;-77
2023/04/13 04:03:48;;;;;;;2.10;0.60;;;10.70;99.90;;;;;;4969847;28;20275;-77
2023/04/13 04:06:14;;;;;;;1.40;0.57;;;10.70;99.90;;;;;;4969811;28;20818;-76
2023/04/13 04:08:48;;;;;;;1.30;0.50;;;10.70;99.90;;;;;;4968395;28;20219;-76
2023/04/13 04:11:43;;;;;;;1.70;0.50;;;10.70;99.90;;;;;;4962441;28;20267;-76
2023/04/13 04:14:11;;;;;;;1.40;0.60;;;10.70;99.90;;;;;;4971365;28;20179;-76
2023/04/13 04:16:39;;;;;;;2.30;0.60;;;10.70;99.90;;;;;;4971192;28;20176;-76
2023/04/13 04:19:11;;;;;;;2.05;0.63;;;10.70;99.90;;;;;;4971736;28;20299;-76
2023/04/13 04:21:45;;;;;;;1.50;0.60;;;10.70;99.90;;;;;;4975741;28;20254;-76
2023/04/13 04:24:22;;;;;;;1.65;0.50;;;10.70;99.90;;;;;;4973557;28;20175;-76
2023/04/13 04:26:53;;;;;;;1.50;0.50;;;10.70;99.90;;;;;;4976495;28;20266;-77
2023/04/13 04:29:21;;;;;;;1.50;0.50;;;10.70;99.90;;;;;;4975386;28;20554;-77
2023/04/13 04:31:52;;;;;;;1.40;0.60;;;10.70;99.90;;;;;;4972814;28;20247;-77
2023/04/13 04:34:20;;;;;;;2.10;0.50;;;10.70;99.90;;;;;;4974120;28;20168;-76
2023/04/13 04:36:49;;;;;;;1.30;0.50;;;10.70;99.90;;;;;;4973337;28;20167;-77
2023/04/13 04:39:20;;;;;;;2.00;0.93;;;10.70;99.90;;;;;;4973470;28;20207;-77
2023/04/13 04:42:02;;;;;;;2.03;0.57;;;10.70;99.90;;;;;;4977600;28;20171;-76
2023/04/13 04:44:30;;;;;;;2.10;0.50;;;10.70;99.90;;;;;;4975347;28;20530;-77
2023/04/13 04:46:59;;;;;;;2.00;0.50;;;10.80;99.90;;;;;;4973592;28;20179;-77
2023/04/13 04:49:26;;;;;;;1.20;0.40;;;10.80;99.90;;;;;;4972252;28;20215;-76
2023/04/13 04:51:54;;;;;;;1.10;0.40;;;10.80;99.90;;;;;;4956922;28;20204;-77
2023/04/13 04:54:21;;;;;;;2.00;0.68;;;10.80;99.90;;;;;;4988776;28;20179;-77
2023/04/13 04:56:47;;;;;;;1.60;0.40;;;10.80;99.90;;;;;;4973022;28;20199;-76
2023/04/13 04:59:14;;;;;;;1.10;0.40;;;10.80;99.90;;;;;;4972640;28;20618;-76
2023/04/13 05:01:52;;;;;;;1.00;0.40;;;10.80;99.90;;;;;;4972985;28;20258;-76
2023/04/13 05:04:18;;;;;;;1.60;0.60;;;10.90;99.90;;;;;;4975615;28;20203;-76
2023/04/13 05:06:44;;;;;;;1.30;0.50;;;10.90;99.90;;;;;;4972819;28;20175;-76
2023/04/13 05:09:13;;;;;;;1.45;0.55;;;10.90;99.90;;;;;;4972313;28;20211;-77
2023/04/13 05:11:45;;;;;;;1.52;0.50;;;10.90;99.90;;;;;;4972214;28;20278;-77
2023/04/13 05:14:12;;;;;;;1.30;0.50;;;11.00;99.90;;;;;;4972769;28;20239;-76
2023/04/13 05:16:38;;;;;;;1.25;0.45;;;11.00;99.90;;;;;;4971685;28;20183;-79
2023/04/13 05:19:14;;;;;;;1.55;0.40;;;10.90;99.90;;;;;;4972585;28;20199;-79
2023/04/13 05:21:43;;;;;;;2.15;0.50;;;10.90;99.90;;;;;;4972950;28;20207;-79
2023/04/13 05:24:10;;;;;;;1.40;0.50;;;10.90;99.90;;;;;;4972055;28;20697;-79
2023/04/13 05:26:37;;;;;;;1.90;0.50;;;10.90;99.90;;;;;;4971345;28;20175;-78
2023/04/13 05:29:05;;;;;;;1.40;0.60;;;10.90;99.90;;;;;;4972009;28;20204;-78
2023/04/13 05:31:35;;;;;;;1.73;0.50;;;10.90;99.90;;;;;;4972378;28;20234;-78
2023/04/13 05:34:02;;;;;;;1.65;0.65;;;10.90;99.90;;;;;;4972158;28;20180;-78
2023/04/13 05:36:28;;;;;;;1.10;0.40;;;10.90;99.90;;;;;;4972024;28;20172;-78
2023/04/13 05:38:57;;;;;;;1.13;0.40;;;10.90;99.90;;;;;;4971983;28;20583;-78
2023/04/13 05:41:25;;;;;;;1.27;0.40;;;10.90;99.90;;;;;;4972234;28;20503;-78
2023/04/13 05:43:51;;;;;;;1.10;0.40;;;10.90;99.90;;;;;;4971670;28;20207;-77
2023/04/13 05:46:17;;;;;;;1.20;0.50;;;11.00;99.90;;;;;;4972010;28;20203;-78
2023/04/13 05:48:44;;;;;;;1.20;0.50;;;11.00;99.90;;;;;;4971487;28;20221;-78
2023/04/13 05:51:14;;;;;;;1.17;0.40;;;11.00;99.90;;;;;;4972164;28;20167;-78
2023/04/13 05:53:44;;;;;;;1.20;0.40;;;11.00;99.90;;;;;;4971698;28;20178;-78
2023/04/13 05:56:11;;;;;;;1.00;0.40;;;11.00;99.90;;;;;;4971362;28;20183;-78
2023/04/13 05:58:39;;;;;;;1.25;0.45;;;11.00;99.90;;;;;;4972115;28;20513;-78
2023/04/13 06:01:18;;;;;;;1.50;0.50;;;10.90;99.90;;;;;;4971604;28;20210;-78
2023/04/13 06:03:45;;;;;;;1.20;0.50;;;10.90;99.90;;;;;;4972213;28;20621;-78
2023/04/13 06:06:16;;;;;;;1.25;0.50;;;10.90;99.90;;;;;;4970929;28;20188;-80
2023/04/13 06:08:43;;;;;;;1.10;0.50;;;10.90;99.90;;;;;;4971671;28;20203;-80
2023/04/13 06:11:11;;;;;;;1.60;0.40;;;10.90;99.90;;;;;;4971198;28;20191;-80
2023/04/13 06:13:38;;;;;;;3.65;0.70;;;11.00;99.90;;;;;;4971580;28;20593;-78
2023/04/13 06:16:04;;;;;;;1.25;0.47;;;11.00;99.90;;;;;;4972686;28;20362;-77
2023/04/13 06:18:29;;;;;;;1.57;0.50;;;11.00;99.90;;;;;;4971495;28;20267;-77
2023/04/13 06:20:56;;;;;;;2.53;0.60;;;11.00;99.90;;;;;;4955235;28;20649;-77
2023/04/13 06:23:22;;;;;;;1.38;0.50;;;11.00;99.90;;;;;;4970998;28;20183;-77
2023/04/13 06:25:51;;;;;;;1.20;0.50;;;11.00;99.90;;;;;;4971178;28;20178;-77
2023/04/13 06:28:28;;;;;;;1.30;0.50;;;11.10;99.90;;;;;;4970750;28;20195;-77
2023/04/13 06:30:55;;;;;;;1.40;0.50;;;11.10;99.90;;;;;;4971359;28;20175;-76
2023/04/13 06:33:22;;;;;;;1.30;0.40;;;11.10;99.90;;;;;;4970680;28;20688;-77
2023/04/13 06:35:51;;;;;;;1.50;0.40;;;11.10;99.90;;;;;;4970450;28;20167;-77
2023/04/13 06:38:18;;;;;;;1.63;0.40;;;11.20;99.90;;;;;;4970958;28;20594;-76
2023/04/13 06:40:52;;;;;;;1.40;0.50;;;11.20;99.90;;;;;;4971075;28;20178;-77
2023/04/13 06:43:18;;;;;;;1.30;0.40;;;11.30;99.90;;;;;;4971241;28;20576;-77
2023/04/13 06:45:55;;;;;;;1.58;0.40;;;11.30;99.90;;;;;;4970407;28;20487;-77
2023/04/13 06:48:22;;;;;;;1.10;0.40;;;11.40;99.90;;;;;;4972327;28;20191;-76
2023/04/13 06:50:57;;;;;;;1.70;0.40;;;11.40;99.90;;;;;;4970693;28;20289;-76
2023/04/13 06:53:24;;;;;;;3.05;0.60;;;11.60;99.90;;;;;;4971079;28;20168;-77
2023/04/13 06:55:50;;;;;;;1.20;0.50;;;11.80;99.90;;;;;;4975103;28;20259;-77
2023/04/13 06:58:16;;;;;;;1.20;0.40;;;12.00;99.90;;;;;;4971429;28;20600;-77
2023/04/13 07:00:42;;;;;;;1.47;0.40;;;12.30;99.90;;;;;;4970547;28;20614;-76
2023/04/13 07:03:07;;;;;;;1.30;0.50;;;12.80;99.90;;;;;;4970591;28;20179;-77
2023/04/13 07:05:35;;;;;;;1.50;0.50;;;13.20;99.90;;;;;;4970603;28;20269;-77
2023/04/13 07:08:07;;;;;;;1.20;0.50;;;13.60;99.90;;;;;;4970461;28;20630;-77
2023/04/13 07:10:38;;;;;;;1.20;0.40;;;13.90;99.90;;;;;;4970755;28;20595;-78
2023/04/13 07:13:05;;;;;;;2.13;0.50;;;14.10;99.90;;;;;;4970166;28;20591;-78
2023/04/13 07:15:32;;;;;;;1.23;0.50;;;14.70;99.90;;;;;;4970590;28;20595;-78
2023/04/13 07:17:57;;;;;;;1.30;0.50;;;15.30;99.90;;;;;;4970468;28;20951;-77
2023/04/13 07:20:25;;;;;;;1.50;0.40;;;15.90;99.90;;;;;;4970723;28;21002;-77
2023/04/13 07:22:51;;;;;;;1.30;0.50;;;16.50;99.90;;;;;;4970192;28;20591;-78
2023/04/13 07:25:17;;;;;;;1.20;0.50;;;16.70;99.90;;;;;;4970999;28;20179;-78
2023/04/13 07:27:43;;;;;;;1.30;0.40;;;16.70;99.90;;;;;;4970747;28;20682;-78
2023/04/13 07:30:10;;;;;;;1.77;0.60;;;16.70;99.90;;;;;;4970126;28;20698;-78
2023/04/13 07:32:40;;;;;;;1.20;0.43;;;16.70;99.90;;;;;;4971112;28;20182;-77
2023/04/13 07:35:07;;;;;;;1.20;0.40;;;16.70;99.90;;;;;;4970019;28;20583;-77
2023/04/13 07:37:35;;;;;;;1.50;0.50;;;16.90;99.90;;;;;;4970789;28;20587;-78
2023/04/13 07:40:03;;;;;;;1.60;0.80;;;17.00;99.90;;;;;;4970347;28;20603;-77
2023/04/13 07:42:31;;;;;;;1.30;0.50;;;17.10;99.90;;;;;;4970618;28;20682;-77
2023/04/13 07:44:57;;;;;;;1.30;0.40;;;17.10;99.90;;;;;;4970380;28;20583;-78
2023/04/13 07:47:25;;;;;;;1.23;0.50;;;17.10;99.90;;;;;;4973163;28;21150;-77
2023/04/13 07:49:55;;;;;;;1.50;0.50;;;17.00;99.90;;;;;;4974105;28;20741;-77
2023/04/13 07:52:22;;;;;;;1.50;0.63;;;16.80;99.90;;;;;;4973724;28;20678;-77
2023/04/13 07:54:48;;;;;;;2.20;0.80;;;16.50;99.90;;;;;;4990284;28;21055;-77
2023/04/13 07:57:18;;;;;;;2.37;0.50;;;16.30;99.90;;;;;;4973883;28;20687;-77
2023/04/13 07:59:48;;;;;;;2.23;0.50;;;16.10;99.90;;;;;;4971142;28;21218;-77
2023/04/13 08:02:15;;;;;;;2.33;0.60;;;15.90;99.90;;;;;;4973738;28;20575;-77
2023/04/13 08:04:43;;;;;;;1.87;0.60;;;15.70;99.90;;;;;;4990315;28;20537;-78
2023/04/13 08:07:10;;;;;;;2.23;0.53;;;15.50;99.90;;;;;;4973819;28;20589;-78
2023/04/13 08:09:40;;;;;;;2.93;0.53;;;15.30;99.90;;;;;;4978418;28;20741;-77
2023/04/13 08:12:07;;;;;;;1.63;0.50;;;15.20;99.90;;;;;;4974003;28;20168;-77
2023/04/13 08:14:37;;;;;;;2.07;0.63;;;15.00;99.90;;;;;;4973555;28;21139;-79
2023/04/13 08:17:04;;;;;;;1.40;0.80;;;14.80;99.90;;;;;;4973843;28;20575;-77
2023/04/13 08:19:31;;;;;;;2.50;0.60;;;14.70;99.90;;;;;;4972961;28;20223;-77
2023/04/13 08:21:57;;;;;;;2.27;0.70;;;14.50;99.90;;;;;;4973221;28;20175;-77
2023/04/13 08:24:24;;;;;;;2.20;0.60;;;14.40;99.90;;;;;;4973427;28;20947;-77
2023/04/13 08:26:56;;;;;;;2.88;0.70;;;14.30;99.90;;;;;;4973827;28;20186;-77
2023/04/13 08:29:23;;;;;;;5.32;0.80;;;14.10;99.90;;;;;;4973444;28;20567;-77
2023/04/13 08:31:49;;;;;;;2.25;0.90;;;14.00;99.90;;;;;;4973433;28;20175;-77
2023/04/13 08:34:18;;;;;;;2.03;1.00;;;14.00;99.90;;;;;;4973489;28;20180;-77
2023/04/13 08:36:45;;;;;;;4.03;1.30;;;13.90;99.90;;;;;;4973481;28;20571;-77
2023/04/13 08:39:15;;;;;;;2.45;0.88;;;13.80;99.90;;;;;;4973832;28;20271;-77
2023/04/13 08:41:46;;;;;;;3.25;1.00;;;13.70;99.90;;;;;;4972829;28;20194;-77
2023/04/13 08:44:14;;;;;;;3.70;0.82;;;13.70;99.90;;;;;;4973302;28;20186;-77
2023/04/13 08:46:45;;;;;;;4.10;0.90;;;13.70;99.90;;;;;;4978732;28;20175;-77
2023/04/13 08:49:12;;;;;;;2.85;1.00;;;13.70;99.90;;;;;;4989443;28;20215;-77
2023/04/13 08:51:58;;;;;;;3.95;0.80;;;13.70;99.90;;;;;;4972967;28;20175;-76
2023/04/13 08:54:27;;;;;;;6.60;0.90;;;13.70;99.90;;;;;;4972743;28;20214;-77
2023/04/13 08:56:55;;;;;;;7.43;1.52;;;13.80;99.90;;;;;;4972533;28;20677;-76
2023/04/13 08:59:23;;;;;;;2.40;0.90;;;13.80;99.90;;;;;;4972287;28;20202;-76
2023/04/13 09:01:50;;;;;;;4.97;1.23;;;13.90;99.90;;;;;;4972487;28;20579;-76
2023/04/13 09:04:20;;;;;;;2.40;1.00;;;14.00;99.90;;;;;;4972883;28;20591;-77
2023/04/13 09:06:50;;;;;;;2.97;0.90;;;14.00;99.90;;;;;;4956839;28;20595;-76
2023/04/13 09:09:19;;;;;;;6.07;0.90;;;14.10;99.90;;;;;;4972545;28;20646;-76
2023/04/13 09:11:44;;;;;;;4.50;1.13;;;14.10;99.90;;;;;;4972907;28;20172;-77
2023/04/13 09:14:11;;;;;;;6.33;1.37;;;14.10;99.90;;;;;;4972046;28;20787;-76
2023/04/13 09:16:39;;;;;;;3.50;1.10;;;14.20;99.90;;;;;;4972786;28;20194;-77
2023/04/13 09:19:07;;;;;;;11.33;2.73;;;14.30;99.90;;;;;;4988507;28;20623;-77
2023/04/13 09:21:44;;;;;;;4.25;1.90;;;14.40;99.90;;;;;;4976150;28;20588;-77
2023/04/13 09:24:10;;;;;;;4.90;1.17;;;14.40;99.90;;;;;;4977423;28;20168;-76
2023/04/13 09:26:41;;;;;;;6.70;1.30;;;14.40;99.90;;;;;;4988660;28;20626;-77
2023/04/13 09:29:09;;;;;;;3.73;1.20;;;14.40;99.90;;;;;;4972992;28;20753;-77
2023/04/13 09:31:38;;;;;;;4.22;1.23;;;14.30;99.90;;;;;;4988551;28;20633;-77
2023/04/13 09:34:04;;;;;;;5.60;1.30;;;14.10;99.90;;;;;;4972563;28;20647;-77
2023/04/13 09:36:31;;;;;;;5.25;1.55;;;14.10;99.90;;;;;;4988029;28;20583;-77
2023/04/13 09:38:57;;;;;;;3.85;1.00;;;14.10;99.90;;;;;;4988586;28;20205;-77
2023/04/13 09:41:37;;;;;;;5.60;1.30;;;14.10;99.90;;;;;;4971841;28;20223;-77
2023/04/13 09:44:33;;;;;;;11.60;1.93;;;14.20;99.90;;;;;;4972376;28;20618;-77
2023/04/13 09:47:00;;;;;;;4.80;1.10;;;14.40;99.90;;;;;;4971997;28;20941;-77
2023/04/13 09:49:38;;;;;;;5.50;2.17;;;14.50;99.90;;;;;;4987917;28;20658;-77
2023/04/13 09:52:07;;;;;;;5.03;1.20;;;14.70;99.90;;;;;;4987487;28;21158;-77
2023/04/13 09:54:34;;;;;;;5.43;1.50;;;14.80;99.90;;;;;;4971294;28;20678;-76
2023/04/13 09:56:59;;;;;;;4.27;1.90;;;14.90;99.90;;;;;;4971546;28;20575;-76
2023/04/13 09:59:26;;;;;;;5.23;1.90;;;15.00;99.90;;;;;;4973204;28;20614;-77
2023/04/13 10:01:53;;;;;;;6.30;1.50;;;15.10;99.90;;;;;;4975507;28;20583;-76
2023/04/13 10:04:19;;;;;;;6.20;1.20;;;15.40;99.90;;;;;;4972807;28;20571;-77
2023/04/13 10:06:47;;;;;;;12.03;1.67;;;15.60;99.90;;;;;;4972195;28;20590;-76
2023/04/13 10:09:14;;;;;;;6.80;1.70;;;15.90;99.90;;;;;;4971228;28;20651;-77
2023/04/13 10:11:49;;;;;;;5.07;1.97;;;16.10;99.90;;;;;;4972786;28;20976;-77
2023/04/13 10:14:25;;;;;;;4.47;1.40;;;16.20;99.90;;;;;;4987103;28;20586;-77
2023/04/13 10:17:19;;;;;;;3.67;1.40;;;16.20;99.90;;;;;;4971787;28;20630;-76
2023/04/13 10:19:50;;;;;;;5.83;1.50;;;16.10;99.90;;;;;;4972341;28;20615;-77
2023/04/13 10:22:19;;;;;;;4.40;1.10;;;15.90;99.90;;;;;;4981122;28;20951;-76
2023/04/13 10:24:45;;;;;;;3.73;1.10;;;15.50;99.90;;;;;;4972239;28;20594;-77
2023/04/13 10:27:15;;;;;;;3.67;1.10;;;15.30;99.90;;;;;;4971728;28;20591;-76
2023/04/13 10:29:41;;;;;;;2.53;1.00;;;15.10;99.90;;;;;;4970832;28;20646;-76
2023/04/13 10:32:07;;;;;;;8.57;2.60;;;15.20;99.90;;;;;;4972417;28;20658;-76
2023/04/13 10:34:34;;;;;;;5.53;1.27;;;15.70;99.90;;;;;;4970911;28;20682;-77
2023/04/13 10:37:05;;;;;;;5.27;1.70;;;16.10;99.90;;;;;;4972600;28;20951;-76
2023/04/13 10:39:34;;;;;;;4.77;1.33;;;16.40;99.90;;;;;;4972734;28;20607;-76
2023/04/13 10:42:07;;;;;;;5.43;1.33;;;16.60;99.90;;;;;;4972094;28;20587;-76
2023/04/13 10:44:47;;;;;;;10.00;1.17;;;16.60;99.90;;;;;;4970974;28;20690;-77
2023/04/13 10:47:14;;;;;;;5.87;1.60;;;16.70;99.90;;;;;;4972112;28;20623;-76
2023/04/13 10:49:41;;;;;;;6.50;1.60;;;16.70;99.90;;;;;;4971087;28;21058;-76
2023/04/13 10:52:11;;;;;;;5.70;1.83;;;16.70;99.90;;;;;;4971874;28;20931;-77
2023/04/13 10:54:38;;;;;;;3.93;1.57;;;16.70;99.90;;;;;;4972251;28;20576;-77
2023/04/13 10:57:07;;;;;;;5.20;1.83;;;16.70;99.90;;;;;;4970718;28;20634;-76
2023/04/13 10:59:48;;;;;;;5.20;1.40;;;16.60;99.90;;;;;;4970857;28;20726;-77
2023/04/13 11:02:16;;;;;;;4.83;1.57;;;16.70;99.90;;;;;;4970708;28;20582;-77
2023/04/13 11:04:44;;;;;;;5.13;1.63;;;16.90;99.90;;;;;;4972101;28;21174;-77
2023/04/13 11:07:29;;;;;;;5.57;1.50;;;17.10;99.90;;;;;;4971043;28;20979;-77
2023/04/13 11:09:57;;;;;;;6.00;1.70;;;17.20;99.90;;;;;;4970731;28;20646;-78
2023/04/13 11:12:24;;;;;;;4.90;1.63;;;17.30;99.90;;;;;;4970924;28;20958;-77
2023/04/13 11:14:50;;;;;;;2.97;1.20;;;17.30;99.90;;;;;;4972275;28;21230;-77
2023/04/13 11:17:18;;;;;;;7.70;2.23;;;17.30;99.90;;;;;;4972492;28;20583;-77
2023/04/13 11:19:52;;;;;;;12.43;4.37;;;17.20;99.90;;;;;;4970424;28;20207;-76
2023/04/13 11:22:21;;;;;;;8.53;4.47;;;17.10;99.90;;;;;;4974321;28;20587;-76
2023/04/13 11:24:47;;;;;;;7.40;3.60;;;17.00;99.90;;;;;;4974243;28;20595;-76
2023/04/13 11:27:22;;;;;;;4.90;2.30;;;17.00;99.90;;;;;;4976417;28;20571;-76
2023/04/13 11:30:04;;;;;;;5.60;2.20;;;17.10;99.90;;;;;;4973863;28;20749;-76
2023/04/13 11:32:31;;;;;;;4.97;1.80;;;17.10;99.90;;;;;;4976041;28;20641;-76
2023/04/13 11:35:13;;;;;;;8.97;1.90;;;17.00;99.90;;;;;;4975220;28;20618;-76
2023/04/13 11:37:48;;;;;;;6.40;1.50;;;16.90;99.90;;;;;;4990845;28;20621;-77
2023/04/13 11:40:21;;;;;;;6.23;1.83;;;17.00;99.90;;;;;;4975461;28;20688;-77
2023/04/13 11:42:50;;;;;;;6.60;1.53;;;17.30;99.90;;;;;;4974356;28;20682;-77
2023/04/13 11:45:16;;;;;;;5.33;1.40;;;17.70;99.90;;;;;;4974319;28;20591;-76
2023/04/13 11:47:44;;;;;;;5.10;1.30;;;18.30;99.90;;;;;;4973992;28;20670;-77
2023/04/13 11:50:10;;;;;;;5.33;1.40;;;18.70;99.90;;;;;;4973991;28;20698;-77
2023/04/13 11:52:37;;;;;;;8.40;2.83;;;19.00;99.90;;;;;;4975032;28;20577;-77
2023/04/13 11:55:05;;;;;;;6.07;1.43;;;19.30;99.90;;;;;;4974042;28;20582;-77
2023/04/13 11:57:34;;;;;;;7.40;1.53;;;19.30;99.90;;;;;;4973644;28;20579;-77
2023/04/13 12:00:00;;;;;;;5.50;1.60;;;19.30;99.90;;;;;;4974251;28;20614;-77
2023/04/13 12:02:27;;;;;;;9.47;1.80;;;19.20;99.90;;;;;;4973954;28;20568;-77
2023/04/13 12:04:54;;;;;;;7.80;2.33;;;19.10;99.90;;;;;;4974415;28;20591;-77
2023/04/13 12:07:20;;;;;;;8.90;2.20;;;18.90;99.90;;;;;;4974588;28;20649;-76
2023/04/13 12:09:47;;;;;;;4.83;2.23;;;18.80;99.90;;;;;;4975239;28;20634;-77
2023/04/13 12:12:15;;;;;;;7.80;3.17;;;18.70;99.90;;;;;;4975139;28;20183;-77
2023/04/13 12:14:41;;;;;;;7.90;3.10;;;18.80;99.90;;;;;;4973546;28;20726;-77
2023/04/13 12:17:13;;;;;;;7.03;2.40;;;18.80;99.90;;;;;;4975431;28;20701;-77
2023/04/13 12:19:40;;;;;;;5.20;1.83;;;18.90;99.90;;;;;;4975056;28;20207;-77
2023/04/13 12:22:06;;;;;;;4.30;1.80;;;19.00;99.90;;;;;;4973546;28;20614;-77
2023/04/13 12:24:36;;;;;;;15.63;4.63;;;19.10;99.90;;;;;;4988888;28;20623;-77
2023/04/13 12:27:05;;;;;;;10.97;4.73;;;19.10;99.90;;;;;;4990090;28;20655;-77
2023/04/13 12:29:37;;;;;;;5.60;1.77;;;19.20;99.90;;;;;;4974780;28;20634;-77
2023/04/13 12:32:05;;;;;;;5.20;1.97;;;19.40;99.90;;;;;;4974707;28;20571;-77
2023/04/13 12:34:30;;;;;;;4.67;1.97;;;19.70;99.90;;;;;;4972448;28;20675;-77
2023/04/13 12:36:56;;;;;;;4.00;1.17;;;20.00;99.90;;;;;;4989872;28;20571;-77
2023/04/13 12:39:22;;;;;;;6.17;1.73;;;20.30;99.90;;;;;;4973406;28;20274;-78
2023/04/13 12:41:48;;;;;;;5.37;1.53;;;20.60;99.90;;;;;;4973632;28;20610;-77
2023/04/13 12:44:14;;;;;;;5.53;1.03;;;20.80;99.90;;;;;;4973611;28;20622;-77
2023/04/13 12:46:39;;;;;;;3.30;1.00;;;21.00;99.90;;;;;;4989163;28;20180;-78
2023/04/13 12:49:05;;;;;;;2.37;1.00;;;21.10;99.90;;;;;;4973090;28;20222;-78
2023/04/13 12:51:31;;;;;;;4.30;1.73;;;21.00;99.90;;;;;;4973007;28;20176;-78
2023/04/13 12:53:56;;;;;;;2.90;1.00;;;21.00;99.90;;;;;;4975639;28;20175;-77
2023/04/13 12:56:23;;;;;;;2.63;1.23;;;21.00;99.90;;;;;;4973488;28;20176;-78
2023/04/13 12:58:49;;;;;;;4.30;1.40;;;21.00;99.40;;;;;;4989494;28;20243;-78